Impacts TAF Board
For situational awareness. Not to be used for flight planning purposes.
IDs:

KJFK - New York/Kennedy Int, NY, US

Issued at 0833 UTC 23 Jul 2019
Updated at 0908 UTC 23 Jul 2019
Potential Impact None Slight Moderate High
Time<<24/10Z 24/11Z 24/12Z 24/13Z 24/14Z 24/15Z 24/16Z 24/17Z 24/18Z 24/19Z 24/20Z 24/21Z 24/22Z
Type PRVL PRVL
VIS >6 >6
CIG 50 50
Cover BKN BKN
FltCat VFR VFR
WX -- --
WDir 40 40
WSpd 6 6
WGst -- --
Raw TAF
KJFK 230833Z 2309/2412 19007KT P6SM -SHRA SCT008 BKN015
  FM231000 35008KT 5SM -SHRA BR BKN008 OVC015
  TEMPO 2310/2313 3SM SHRA BR OVC008
  FM231300 35012KT 5SM -SHRA BR OVC015
  FM231700 33009KT P6SM -SHRA SCT015 BKN025
  FM232000 01006KT P6SM VCSH SCT025 BKN040
  PROB30 2320/2324 -SHRA BKN030
  FM240400 04006KT P6SM BKN050


METAR Board
Radar Display
Forecast Discussion
For situational awareness. Not to be used for flight planning purposes.